createdAt,value
2018-11-06T00:01:12.166Z,88.12
2018-11-06T00:03:47.450Z,89.28
2018-11-06T00:06:16.898Z,90.09
2018-11-06T00:08:45.798Z,90.64
2018-11-06T00:11:14.772Z,90.69
2018-11-06T00:13:43.776Z,90.77
2018-11-06T00:16:13.172Z,90.67
2018-11-06T00:18:42.045Z,90.73
2018-11-06T00:21:10.999Z,90.28
2018-11-06T00:23:40.207Z,89.85
2018-11-06T00:26:09.145Z,89.76
2018-11-06T00:28:38.215Z,90.24
2018-11-06T00:31:07.508Z,90.53
2018-11-06T00:33:36.364Z,90.31
2018-11-06T00:36:06.174Z,89.83
2018-11-06T00:38:35.443Z,90.33
2018-11-06T00:41:04.519Z,90.40
2018-11-06T00:43:33.392Z,90.34
2018-11-06T00:46:03.342Z,90.10
2018-11-06T00:48:32.275Z,90.03
2018-11-06T00:51:01.177Z,89.99
2018-11-06T00:53:30.618Z,89.69
2018-11-06T00:55:59.506Z,89.84
2018-11-06T00:58:34.175Z,89.79
2018-11-06T01:01:03.121Z,90.14
2018-11-06T01:03:37.181Z,90.15
2018-11-06T01:06:06.428Z,90.39
2018-11-06T01:08:35.351Z,90.06
2018-11-06T01:11:04.243Z,90.29
2018-11-06T01:13:38.712Z,90.16
2018-11-06T01:16:07.697Z,90.19
2018-11-06T01:18:36.559Z,90.08
2018-11-06T01:21:05.966Z,89.92
2018-11-06T01:26:08.211Z,90.33
2018-11-06T01:28:37.400Z,89.85
2018-11-06T01:31:06.312Z,89.56
2018-11-06T01:33:35.190Z,89.90
2018-11-06T01:36:05.348Z,89.50
2018-11-06T01:38:34.521Z,90.07
2018-11-06T01:41:03.571Z,89.95
2018-11-06T01:43:32.805Z,90.38
2018-11-06T01:46:02.471Z,90.17
2018-11-06T01:48:31.461Z,90.72
2018-11-06T01:51:00.685Z,90.26
2018-11-06T01:53:29.593Z,90.04
2018-11-06T01:55:58.523Z,90.21
2018-11-06T01:58:27.931Z,90.27
2018-11-06T02:01:00.784Z,90.05
2018-11-06T02:03:29.787Z,89.98
2018-11-06T02:05:58.723Z,89.58
2018-11-06T02:08:27.612Z,88.30
2018-11-06T02:10:56.861Z,87.95
2018-11-06T02:13:25.704Z,88.37
2018-11-06T02:15:54.673Z,88.39
2018-11-06T02:18:24.583Z,88.65
2018-11-06T02:20:53.584Z,88.44
2018-11-06T02:23:22.496Z,87.79
2018-11-06T02:25:51.786Z,87.48
2018-11-06T02:28:24.192Z,87.33
2018-11-06T02:30:53.174Z,87.17
2018-11-06T02:33:28.876Z,87.59
2018-11-06T02:35:57.770Z,87.76
2018-11-06T02:38:27.204Z,88.37
2018-11-06T02:40:56.062Z,88.75
2018-11-06T02:43:24.918Z,88.85
2018-11-06T02:45:54.861Z,88.76
2018-11-06T02:48:23.750Z,87.69
2018-11-06T02:50:52.650Z,88.16
2018-11-06T02:53:21.982Z,88.04
2018-11-06T02:55:50.899Z,87.77
2018-11-06T02:58:19.822Z,87.95
2018-11-06T03:00:52.322Z,88.95
2018-11-06T03:03:21.266Z,89.06
2018-11-06T03:05:50.138Z,89.52
2018-11-06T03:08:19.647Z,90.07
2018-11-06T03:10:48.562Z,90.13
2018-11-06T03:13:17.566Z,90.22
2018-11-06T03:15:46.960Z,90.21
2018-11-06T03:18:15.961Z,90.21
2018-11-06T03:20:45.013Z,90.56
2018-11-06T03:23:14.386Z,90.55
2018-11-06T03:25:43.271Z,90.51
2018-11-06T03:28:12.208Z,90.54
2018-11-06T03:30:41.175Z,90.37
2018-11-06T03:33:10.203Z,90.52
2018-11-06T03:35:39.497Z,90.62
2018-11-06T03:38:08.415Z,90.75
2018-11-06T03:40:37.311Z,90.75
2018-11-06T03:43:06.792Z,90.42
2018-11-06T03:45:35.770Z,90.46
2018-11-06T03:48:05.789Z,90.06
2018-11-06T03:50:35.143Z,90.54
2018-11-06T03:53:04.150Z,90.36
2018-11-06T03:55:33.045Z,90.25
2018-11-06T03:58:03.564Z,89.69
2018-11-06T04:00:32.490Z,89.68
2018-11-06T04:03:01.379Z,90.05
2018-11-06T04:05:30.844Z,90.20
2018-11-06T04:07:59.832Z,89.41
2018-11-06T04:10:28.739Z,89.62
2018-11-06T04:13:00.258Z,89.96
2018-11-06T04:15:29.318Z,89.88
2018-11-06T04:17:58.282Z,89.75
2018-11-06T04:20:27.562Z,89.72
2018-11-06T04:22:56.584Z,89.57
2018-11-06T04:25:25.666Z,89.39
2018-11-06T04:27:55.082Z,89.31
2018-11-06T04:30:24.075Z,88.89
2018-11-06T04:32:53.036Z,88.76
2018-11-06T04:35:23.445Z,88.81
2018-11-06T04:37:52.373Z,88.65
2018-11-06T04:40:21.244Z,88.68
2018-11-06T04:42:50.550Z,88.92
2018-11-06T04:45:19.751Z,88.96
2018-11-06T04:47:48.712Z,88.90
2018-11-06T04:50:19.821Z,89.06
2018-11-06T04:52:48.805Z,89.10
2018-11-06T04:55:17.834Z,88.93
2018-11-06T04:57:47.237Z,88.72
2018-11-06T05:00:16.357Z,89.13
2018-11-06T05:02:45.392Z,88.91
2018-11-06T05:05:14.676Z,87.82
2018-11-06T05:07:43.591Z,87.97
2018-11-06T05:10:16.523Z,87.90
2018-11-06T05:12:45.443Z,88.00
2018-11-06T05:15:15.633Z,87.32
2018-11-06T05:17:45.021Z,86.63
2018-11-06T05:20:18.170Z,84.98
2018-11-06T05:22:47.507Z,84.01
2018-11-06T05:25:16.929Z,83.67
2018-11-06T05:27:45.966Z,84.88
2018-11-06T05:30:15.087Z,86.17
2018-11-06T05:32:44.908Z,86.48
2018-11-06T05:35:13.969Z,87.00
2018-11-06T05:37:42.889Z,87.22
2018-11-06T05:40:22.704Z,87.41
2018-11-06T05:42:51.646Z,87.51
2018-11-06T05:45:21.051Z,87.65
2018-11-06T05:47:49.908Z,87.50
2018-11-06T05:50:18.947Z,87.48
2018-11-06T05:52:53.380Z,87.03
2018-11-06T05:55:28.666Z,87.19
2018-11-06T05:57:58.019Z,86.50
2018-11-06T06:00:26.982Z,86.54
2018-11-06T06:02:55.847Z,86.46
2018-11-06T06:05:24.844Z,86.42
2018-11-06T06:07:54.052Z,86.13
2018-11-06T06:10:24.147Z,86.17
2018-11-06T06:12:53.058Z,85.77
2018-11-06T06:15:31.137Z,85.61
2018-11-06T06:18:00.617Z,85.20
2018-11-06T06:20:29.516Z,85.01
2018-11-06T06:22:58.429Z,85.25
2018-11-06T06:25:27.750Z,84.83
2018-11-06T06:28:07.178Z,85.10
2018-11-06T06:30:36.306Z,84.82
2018-11-06T06:33:05.253Z,84.95
2018-11-06T06:35:35.871Z,85.13
2018-11-06T06:38:06.411Z,84.91
2018-11-06T06:40:35.321Z,84.79
2018-11-06T06:43:04.316Z,84.62
2018-11-06T06:45:33.659Z,84.76
2018-11-06T06:48:06.493Z,85.07
2018-11-06T06:50:35.432Z,84.70
2018-11-06T06:53:04.948Z,84.20
2018-11-06T06:55:34.722Z,84.02
2018-11-06T06:58:04.486Z,83.65
2018-11-06T07:00:33.826Z,83.37
2018-11-06T07:03:02.808Z,83.10
2018-11-06T07:05:31.906Z,82.68
2018-11-06T07:08:01.289Z,82.36
2018-11-06T07:10:30.272Z,82.36
2018-11-06T07:12:59.333Z,82.25
2018-11-06T07:15:28.773Z,82.49
2018-11-06T07:17:59.261Z,82.34
2018-11-06T07:20:28.471Z,82.55
2018-11-06T07:22:57.498Z,82.35
2018-11-06T07:25:26.453Z,82.10
2018-11-06T07:27:55.789Z,82.40
2018-11-06T07:30:24.784Z,82.91
2018-11-06T07:32:53.732Z,82.39
2018-11-06T07:35:23.293Z,82.63
2018-11-06T07:37:52.160Z,82.63
2018-11-06T07:40:21.856Z,83.18
2018-11-06T07:42:51.061Z,83.58
2018-11-06T07:45:21.385Z,83.59
2018-11-06T07:47:51.589Z,83.74
2018-11-06T07:50:20.940Z,83.65
2018-11-06T07:52:49.872Z,84.04
2018-11-06T07:55:19.609Z,84.10
2018-11-06T07:57:55.132Z,84.01
2018-11-06T08:00:25.371Z,84.08
2018-11-06T08:02:54.758Z,83.63
2018-11-06T08:05:23.719Z,83.64
2018-11-06T08:07:53.090Z,83.63
2018-11-06T08:10:22.391Z,83.62
2018-11-06T08:12:53.145Z,83.16
2018-11-06T08:15:28.975Z,83.03
2018-11-06T08:17:58.297Z,82.82
2018-11-06T08:20:27.345Z,82.85
2018-11-06T08:22:56.335Z,82.79
2018-11-06T08:25:25.723Z,82.77
2018-11-06T08:27:54.922Z,83.07
2018-11-06T08:30:23.847Z,82.32
2018-11-06T08:32:53.491Z,82.41
2018-11-06T08:35:22.175Z,81.96
2018-11-06T08:37:51.151Z,82.11
2018-11-06T08:40:20.160Z,81.99
2018-11-06T08:42:49.166Z,82.33
2018-11-06T08:45:18.468Z,82.00
2018-11-06T08:47:53.232Z,82.31
2018-11-06T08:50:22.248Z,82.10
2018-11-06T08:52:51.452Z,82.33
2018-11-06T08:55:20.372Z,82.48
2018-11-06T08:57:49.261Z,82.55
2018-11-06T09:00:19.371Z,82.32
2018-11-06T09:02:49.197Z,82.24
2018-11-06T09:05:18.842Z,82.20
2018-11-06T09:07:47.933Z,82.33
2018-11-06T09:10:17.575Z,82.48
2018-11-06T09:12:46.708Z,81.77
2018-11-06T09:15:16.723Z,81.80
2018-11-06T09:17:45.813Z,81.42
2018-11-06T09:20:20.439Z,81.08
2018-11-06T09:22:49.417Z,80.82
2018-11-06T09:25:19.301Z,80.69
2018-11-06T09:27:48.475Z,81.05
2018-11-06T09:33:00.873Z,81.20
2018-11-06T09:35:33.426Z,81.24
2018-11-06T09:40:45.487Z,80.41
2018-11-06T09:43:21.027Z,81.14
2018-11-06T09:46:03.133Z,80.94
2018-11-06T09:48:34.028Z,80.97
2018-11-06T09:51:10.618Z,81.13
2018-11-06T09:56:35.021Z,80.74
2018-11-06T10:01:49.117Z,80.62
2018-11-06T10:07:07.395Z,81.02
2018-11-06T10:09:41.828Z,81.09
2018-11-06T10:12:13.010Z,80.49
2018-11-06T10:17:22.469Z,80.06
2018-11-06T10:19:53.394Z,80.17
2018-11-06T10:25:19.189Z,79.98
2018-11-06T10:27:49.560Z,79.93
2018-11-06T10:30:20.190Z,79.92
2018-11-06T10:32:51.520Z,80.58
2018-11-06T10:35:24.373Z,80.27
2018-11-06T10:40:29.720Z,80.53
2018-11-06T10:43:05.959Z,80.06
2018-11-06T10:45:43.725Z,79.97
2018-11-06T10:48:13.321Z,79.81
2018-11-06T10:50:50.926Z,79.03
2018-11-06T10:53:22.009Z,78.30
2018-11-06T10:56:06.704Z,77.48
2018-11-06T10:58:44.984Z,77.27
2018-11-06T11:01:21.258Z,75.64
2018-11-06T11:03:56.723Z,74.50
2018-11-06T11:06:28.898Z,73.47
2018-11-06T11:08:59.407Z,73.37
2018-11-06T11:11:36.369Z,72.13
2018-11-06T11:14:11.500Z,71.31
2018-11-06T11:16:45.792Z,71.11
2018-11-06T11:19:18.973Z,71.63
2018-11-06T11:21:51.904Z,70.43
2018-11-06T11:24:24.365Z,70.74
2018-11-06T11:27:01.568Z,70.74
2018-11-06T11:32:16.530Z,70.58
2018-11-06T11:34:51.929Z,71.20
2018-11-06T11:37:23.132Z,71.03
2018-11-06T11:39:54.665Z,71.35
2018-11-06T11:42:25.835Z,71.37
2018-11-06T11:44:58.851Z,71.31
2018-11-06T11:47:31.108Z,71.72
2018-11-06T11:50:03.946Z,72.25
2018-11-06T11:52:35.825Z,72.39
2018-11-06T11:55:11.190Z,72.58
2018-11-06T11:57:43.925Z,72.58
2018-11-06T12:00:18.218Z,72.61
2018-11-06T12:02:55.304Z,72.86
2018-11-06T12:05:34.459Z,72.54
2018-11-06T12:08:16.373Z,73.05
2018-11-06T12:10:48.804Z,72.15
2018-11-06T12:13:23.219Z,72.26
2018-11-06T12:15:55.025Z,72.21
2018-11-06T12:18:26.254Z,71.76
2018-11-06T12:21:00.466Z,71.33
2018-11-06T12:23:32.451Z,70.86
2018-11-06T12:26:08.463Z,69.30
2018-11-06T12:28:44.678Z,68.64
2018-11-06T12:33:53.845Z,67.92
2018-11-06T12:36:33.943Z,66.78
2018-11-06T12:39:07.766Z,66.69
2018-11-06T12:41:37.832Z,65.01
2018-11-06T12:44:17.565Z,64.64
2018-11-06T12:46:47.437Z,64.44
2018-11-06T12:49:20.609Z,63.37
2018-11-06T12:52:00.455Z,63.09
2018-11-06T12:54:30.407Z,62.46
2018-11-06T12:56:59.669Z,61.26
2018-11-06T12:59:28.559Z,60.48
2018-11-06T13:02:06.091Z,59.96
2018-11-06T13:04:35.487Z,59.43
2018-11-06T13:07:04.564Z,58.58
2018-11-06T13:09:42.216Z,58.51
2018-11-06T13:12:23.639Z,58.76
2018-11-06T13:14:52.808Z,58.95
2018-11-06T13:17:21.967Z,59.34
2018-11-06T13:19:52.708Z,58.90
2018-11-06T13:22:21.606Z,59.14
2018-11-06T13:24:53.746Z,59.05
2018-11-06T13:27:22.806Z,59.87
2018-11-06T13:29:51.925Z,60.24
2018-11-06T13:32:30.120Z,61.08
2018-11-06T13:34:59.070Z,61.84
2018-11-06T13:37:28.113Z,62.23
2018-11-06T13:39:57.442Z,62.32
2018-11-06T13:42:26.994Z,63.27
2018-11-06T13:44:56.170Z,63.19
2018-11-06T13:47:25.215Z,63.85
2018-11-06T13:49:54.239Z,64.95
2018-11-06T13:52:23.278Z,65.29
2018-11-06T13:54:52.504Z,64.99
2018-11-06T13:57:21.371Z,65.79
2018-11-06T13:59:50.432Z,65.32
2018-11-06T14:02:20.080Z,65.99
2018-11-06T14:04:49.597Z,66.14
2018-11-06T14:07:20.727Z,66.13
2018-11-06T14:09:50.036Z,65.70
2018-11-06T14:12:18.993Z,65.55
2018-11-06T14:14:47.875Z,65.49
2018-11-06T14:17:21.722Z,65.00
2018-11-06T14:19:50.637Z,65.76
2018-11-06T14:22:20.074Z,65.62
2018-11-06T14:24:49.326Z,65.62
2018-11-06T14:27:18.271Z,65.69
2018-11-06T14:29:47.683Z,65.89
2018-11-06T14:32:16.755Z,65.77
2018-11-06T14:34:46.728Z,66.31
2018-11-06T14:37:15.978Z,66.13
2018-11-06T14:39:45.149Z,66.50
2018-11-06T14:42:15.113Z,66.78
2018-11-06T14:44:47.480Z,67.31
2018-11-06T14:47:16.657Z,67.68
2018-11-06T14:49:46.784Z,67.27
2018-11-06T14:52:16.318Z,68.25
2018-11-06T14:54:45.307Z,68.29
2018-11-06T14:57:14.412Z,69.15
2018-11-06T14:59:47.574Z,69.19
2018-11-06T15:02:16.818Z,69.63
2018-11-06T15:04:46.389Z,69.68
2018-11-06T15:07:16.213Z,70.28
2018-11-06T15:09:45.144Z,70.51
2018-11-06T15:12:14.571Z,70.90
2018-11-06T15:14:43.507Z,71.84
2018-11-06T15:17:23.224Z,71.55
2018-11-06T15:19:52.806Z,72.12
2018-11-06T15:22:21.760Z,72.25
2018-11-06T15:24:50.935Z,72.16
2018-11-06T15:27:20.359Z,72.29
2018-11-06T15:32:25.110Z,73.30
2018-11-06T15:34:54.163Z,73.49
2018-11-06T15:37:32.743Z,74.72
2018-11-06T15:40:03.546Z,75.20
2018-11-06T15:42:32.638Z,75.45
2018-11-06T15:45:02.864Z,76.61
2018-11-06T15:47:35.890Z,77.02
2018-11-06T15:50:08.467Z,77.86
2018-11-06T15:52:37.695Z,78.27
2018-11-06T15:55:17.543Z,78.42
2018-11-06T15:57:46.662Z,78.79
2018-11-06T16:00:19.106Z,78.76
2018-11-06T16:02:48.575Z,79.18
2018-11-06T16:05:17.506Z,81.11
2018-11-06T16:10:27.470Z,82.73
2018-11-06T16:12:57.611Z,83.30
2018-11-06T16:15:26.806Z,84.08
2018-11-06T16:17:55.666Z,83.34
2018-11-06T16:20:24.885Z,84.10
2018-11-06T16:22:54.071Z,83.81
2018-11-06T16:25:23.137Z,84.98
2018-11-06T16:27:52.434Z,85.16
2018-11-06T16:32:56.173Z,85.19
2018-11-06T16:35:25.518Z,85.76
2018-11-06T16:37:54.694Z,85.72
2018-11-06T16:40:23.835Z,85.75
2018-11-06T16:42:53.204Z,86.25
2018-11-06T16:45:22.950Z,85.82
2018-11-06T16:47:52.750Z,86.40
2018-11-06T16:50:22.500Z,85.59
2018-11-06T16:52:51.614Z,85.67
2018-11-06T16:55:21.064Z,85.84
2018-11-06T16:57:50.441Z,86.00
2018-11-06T17:00:23.984Z,86.44
2018-11-06T17:02:53.484Z,85.35
2018-11-06T17:05:22.765Z,85.29
2018-11-06T17:10:31.342Z,85.26
2018-11-06T17:13:01.170Z,85.43
2018-11-06T17:15:33.997Z,85.27
2018-11-06T17:18:08.506Z,85.54
2018-11-06T17:20:39.115Z,85.57
2018-11-06T17:23:08.664Z,85.25
2018-11-06T17:25:47.020Z,84.79
2018-11-06T17:28:29.454Z,85.47
2018-11-06T17:30:59.957Z,85.06
2018-11-06T17:33:30.489Z,85.65
2018-11-06T17:36:00.341Z,85.84
2018-11-06T17:38:34.944Z,85.71
2018-11-06T17:41:04.468Z,85.94
2018-11-06T17:43:33.840Z,85.68
2018-11-06T17:46:05.160Z,85.95
2018-11-06T17:48:35.766Z,86.23
2018-11-06T17:51:04.820Z,85.56
2018-11-06T17:53:33.716Z,86.05
2018-11-06T17:56:14.191Z,85.23
2018-11-06T17:58:43.143Z,85.02
2018-11-06T18:01:12.530Z,85.46
2018-11-06T18:03:41.815Z,85.99
2018-11-06T18:06:10.952Z,86.33
2018-11-06T18:08:40.506Z,86.37
2018-11-06T18:11:09.730Z,86.27
2018-11-06T18:13:43.503Z,86.18
2018-11-06T18:16:12.777Z,86.28
2018-11-06T18:18:47.584Z,86.43
2018-11-06T18:21:17.808Z,86.50
2018-11-06T18:23:47.108Z,86.79
2018-11-06T18:26:16.287Z,86.26
2018-11-06T18:28:45.434Z,85.02
2018-11-06T18:31:14.930Z,85.21
2018-11-06T18:33:44.086Z,86.96
2018-11-06T18:36:13.077Z,86.22
2018-11-06T18:38:42.799Z,85.96
2018-11-06T18:41:12.395Z,86.06
2018-11-06T18:43:41.778Z,86.22
2018-11-06T18:48:31.901Z,87.00
2018-11-06T18:51:00.986Z,87.09
2018-11-06T18:53:37.406Z,87.13
2018-11-06T18:56:07.077Z,87.04
2018-11-06T18:58:36.337Z,86.96
2018-11-06T19:01:05.412Z,87.33
2018-11-06T19:03:34.900Z,87.24
2018-11-06T19:06:05.329Z,86.33
2018-11-06T19:08:35.143Z,86.68
2018-11-06T19:11:04.828Z,86.82
2018-11-06T19:13:34.433Z,87.02
2018-11-06T19:16:19.866Z,87.13
2018-11-06T19:21:29.430Z,87.03
2018-11-06T19:23:58.816Z,87.43
2018-11-06T19:26:28.182Z,87.10
2018-11-06T19:28:57.819Z,87.26
2018-11-06T19:31:27.424Z,87.22
2018-11-06T19:33:56.890Z,87.36
2018-11-06T19:36:26.548Z,87.32
2018-11-06T19:38:56.066Z,87.35
2018-11-06T19:41:25.972Z,87.12
2018-11-06T19:43:55.917Z,86.69
2018-11-06T19:46:31.259Z,86.92
2018-11-06T19:49:00.742Z,86.92
2018-11-06T19:51:30.613Z,86.94
2018-11-06T19:54:00.325Z,86.94
2018-11-06T19:56:29.962Z,86.70
2018-11-06T19:58:59.747Z,86.75
2018-11-06T20:01:29.208Z,86.48
2018-11-06T20:03:58.685Z,86.78
2018-11-06T20:07:00.027Z,86.03
2018-11-06T20:09:29.645Z,86.29
2018-11-06T20:11:59.964Z,85.79
2018-11-06T20:14:29.356Z,86.14
2018-11-06T20:16:58.919Z,86.07
2018-11-06T20:19:29.919Z,85.84
2018-11-06T20:21:59.399Z,85.70
2018-11-06T20:24:29.721Z,85.38
2018-11-06T20:27:00.776Z,85.38
2018-11-06T20:29:30.446Z,85.61
2018-11-06T20:32:00.168Z,85.71
2018-11-06T20:34:36.226Z,85.17
2018-11-06T20:37:12.840Z,84.91
2018-11-06T20:39:43.853Z,85.50
2018-11-06T20:42:13.340Z,85.63
2018-11-06T20:44:43.046Z,85.38
2018-11-06T20:47:12.916Z,85.39
2018-11-06T20:49:42.574Z,84.71
2018-11-06T20:52:12.268Z,85.19
2018-11-06T20:54:45.015Z,84.82
2018-11-06T20:57:14.385Z,84.88
2018-11-06T20:59:44.227Z,84.89
2018-11-06T21:02:14.152Z,84.88
2018-11-06T21:04:43.815Z,84.65
2018-11-06T21:07:13.745Z,85.08
2018-11-06T21:09:43.262Z,84.65
2018-11-06T21:12:19.401Z,84.77
2018-11-06T21:14:49.070Z,84.80
2018-11-06T21:19:54.996Z,84.36
2018-11-06T21:22:24.473Z,83.87
2018-11-06T21:24:54.092Z,84.06
2018-11-06T21:27:24.289Z,84.39
2018-11-06T21:29:54.081Z,84.20
2018-11-06T21:32:24.192Z,84.48
2018-11-06T21:34:54.830Z,84.04
2018-11-06T21:37:24.873Z,84.12
2018-11-06T21:39:54.920Z,84.11
2018-11-06T21:42:24.946Z,84.48
2018-11-06T21:44:54.347Z,84.26
2018-11-06T21:47:29.631Z,84.29
2018-11-06T21:49:59.599Z,85.11
2018-11-06T21:52:30.887Z,84.87
2018-11-06T21:55:00.318Z,84.41
2018-11-06T21:57:31.223Z,84.37
2018-11-06T22:00:00.811Z,84.42
2018-11-06T22:02:30.405Z,84.76
2018-11-06T22:04:59.876Z,84.79
2018-11-06T22:07:29.680Z,84.98
2018-11-06T22:09:58.876Z,84.96
2018-11-06T22:12:28.843Z,84.54
2018-11-06T22:15:02.330Z,84.56
2018-11-06T22:17:31.761Z,84.16
2018-11-06T22:20:00.932Z,84.62
2018-11-06T22:22:35.283Z,85.38
2018-11-06T22:27:45.771Z,84.23
2018-11-06T22:30:16.299Z,84.39
2018-11-06T22:32:46.818Z,85.49
2018-11-06T22:35:17.776Z,85.68
2018-11-06T22:37:49.957Z,85.51
2018-11-06T22:40:19.540Z,85.60
2018-11-06T22:42:49.581Z,85.72
2018-11-06T22:45:19.352Z,85.65
2018-11-06T22:47:48.750Z,85.73
2018-11-06T22:50:19.659Z,85.71
2018-11-06T22:52:49.521Z,85.77
2018-11-06T22:55:18.973Z,86.04
2018-11-06T22:57:49.405Z,85.34
2018-11-06T23:00:24.077Z,85.46
2018-11-06T23:02:55.474Z,85.79
2018-11-06T23:05:25.341Z,85.28
2018-11-06T23:07:59.897Z,85.56
2018-11-06T23:10:29.967Z,85.75
2018-11-06T23:13:02.441Z,85.23
2018-11-06T23:15:31.973Z,85.21
2018-11-06T23:18:04.146Z,84.83
2018-11-06T23:20:33.450Z,85.17
2018-11-06T23:23:03.260Z,84.93
2018-11-06T23:25:33.076Z,85.01
2018-11-06T23:28:03.312Z,84.79
2018-11-06T23:30:33.140Z,85.30
2018-11-06T23:33:04.188Z,85.25
2018-11-06T23:35:33.721Z,85.16
2018-11-06T23:38:04.470Z,84.61
2018-11-06T23:40:33.729Z,84.73
2018-11-06T23:43:02.971Z,84.97
2018-11-06T23:45:32.600Z,84.90
2018-11-06T23:48:03.679Z,85.17
2018-11-06T23:50:33.128Z,85.41
2018-11-06T23:53:02.816Z,84.85
2018-11-06T23:55:38.436Z,85.51
2018-11-06T23:58:08.350Z,85.40
